Main page
METAR-TAF:

METAR-TAF

Airports :

Marshall Islands International Airport

Majuro, Marshall Islands

latitude: 07-04N, longitude: 171-17E, elevation: 2 m

Current weather observation

The report was made 3 hours and 7 minutes ago, at 08:54 UTC
Temperature 29°C
Humidity 79%
Pressure 1010 hPa
Visibility: 24.1 km
Few clouds at a height of 1500 ft
Scattered clouds at a height of 5000 ft
Broken clouds at a height of 12000 ft
Overcast at a height of 30000 ft

METAR: PKMJ 270854Z 06010K 15SM FEW015 SCT050 BKN120 OVC300 29/25 A2982 RMK LAST

Time: 00:01 (12:01 UTC)

Forecast

The report was made 15 minutes ago, at 11:46 UTC
Forecast valid from 27 at 12 UTC to 28 at 12 UTC
Wind 12 kt from the East/Northeast
Visibility: 10 km
Scattered clouds at a height of 1500 ft
Scattered clouds at a height of 5000 ft
showers in vicinity,

TAF: PKMJ 271146Z 2712/2812 07012KT P6SM VCSH SCT015 SCT050

Weather observations and forecasts of more than 4000 airports (METAR and TAF reports).

The available stations are represented by yellow and red dots on the map.

Hover mouse over dot to see the name of the station.

Then click to see weather observations and forecasts.

To change the map : click on the green buttons with a black cross to zoom in, on the green button with a dash to zoom out, or on the green arrows for adjacent maps.


METAR-TAF: